Time;durP1;ratioP1;P1;durP2;ratioP2;P2;SDS_P1;SDS_P2;PMS_P1;PMS_P2;Temp;Humidity;BMP_temperature;BMP_pressure;BME280_temperature;BME280_humidity;BME280_pressure;Samples;Min_cycle;Max_cycle;Signal;HPM_P1;HPM_P2
2023/05/18 00:01:32;;;;;;;8.63;7.30;;;8.50;99.90;;;;;;6135325;23;20248;-75
2023/05/18 00:03:59;;;;;;;7.70;6.90;;;8.50;99.90;;;;;;6147382;23;20646;-75
2023/05/18 00:06:26;;;;;;;9.30;7.50;;;8.60;99.90;;;;;;6147169;23;20195;-75
2023/05/18 00:08:53;;;;;;;7.85;7.10;;;8.60;99.90;;;;;;6137211;23;20340;-74
2023/05/18 00:11:20;;;;;;;8.25;7.15;;;8.60;99.90;;;;;;6140930;23;20239;-75
2023/05/18 00:13:48;;;;;;;7.95;7.18;;;8.60;99.90;;;;;;6134161;23;20236;-75
2023/05/18 00:16:15;;;;;;;7.80;7.10;;;8.60;99.90;;;;;;6148477;23;20199;-75
2023/05/18 00:18:43;;;;;;;7.95;6.93;;;8.60;99.90;;;;;;6132037;23;20195;-75
2023/05/18 00:21:11;;;;;;;11.02;8.60;;;8.60;99.90;;;;;;6144632;23;20687;-75
2023/05/18 00:23:38;;;;;;;10.18;8.32;;;8.60;99.90;;;;;;6132077;23;20192;-75
2023/05/18 00:26:05;;;;;;;9.00;8.10;;;8.60;99.90;;;;;;6135442;23;20239;-75
2023/05/18 00:28:32;;;;;;;9.38;8.45;;;8.70;99.90;;;;;;6128710;23;20212;-75
2023/05/18 00:31:00;;;;;;;10.60;7.90;;;8.70;99.90;;;;;;6145884;23;20189;-75
2023/05/18 00:33:27;;;;;;;8.80;7.80;;;8.30;99.90;;;;;;6124129;23;20189;-75
2023/05/18 00:35:56;;;;;;;10.00;8.02;;;8.70;99.90;;;;;;6146825;23;20267;-75
2023/05/18 00:38:23;;;;;;;9.10;8.25;;;8.70;99.90;;;;;;6133664;23;20185;-75
2023/05/18 00:40:50;;;;;;;8.60;7.80;;;8.70;99.90;;;;;;6125078;23;20291;-75
2023/05/18 00:43:17;;;;;;;8.90;7.95;;;8.70;99.90;;;;;;6135789;23;20231;-76
2023/05/18 00:45:44;;;;;;;11.55;8.35;;;8.70;99.90;;;;;;6135503;23;20194;-76
2023/05/18 00:48:11;;;;;;;9.32;8.40;;;8.70;99.90;;;;;;6147132;23;20544;-74
2023/05/18 00:50:39;;;;;;;10.60;8.25;;;8.60;99.90;;;;;;6148865;23;20187;-75
2023/05/18 00:53:09;;;;;;;9.35;8.43;;;8.50;99.90;;;;;;6152442;23;20249;-75
2023/05/18 00:55:36;;;;;;;8.40;7.60;;;8.40;99.90;;;;;;6146072;23;20207;-75
2023/05/18 00:58:04;;;;;;;10.38;7.70;;;8.40;99.90;;;;;;6145584;23;20573;-75
2023/05/18 01:00:32;;;;;;;8.93;8.13;;;8.30;99.90;;;;;;6119740;23;20193;-75
2023/05/18 01:03:00;;;;;;;9.40;8.48;;;8.20;99.90;;;;;;6154124;23;20533;-75
2023/05/18 01:05:28;;;;;;;8.02;7.18;;;8.10;99.90;;;;;;6124700;23;20191;-74
2023/05/18 01:07:55;;;;;;;9.75;8.65;;;8.10;99.90;;;;;;6133184;23;20250;-74
2023/05/18 01:10:24;;;;;;;8.13;7.03;;;8.10;99.90;;;;;;6147854;23;20243;-74
2023/05/18 01:12:53;;;;;;;8.02;7.32;;;8.10;99.90;;;;;;6141728;23;20227;-74
2023/05/18 01:15:26;;;;;;;9.40;7.28;;;8.10;99.90;;;;;;6145601;23;20609;-74
2023/05/18 01:18:13;;;;;;;9.60;8.30;;;8.10;99.90;;;;;;6143489;23;20188;-74
2023/05/18 01:20:45;;;;;;;9.52;7.90;;;8.20;99.90;;;;;;6141582;23;20185;-75
2023/05/18 01:23:40;;;;;;;8.75;7.85;;;8.10;99.90;;;;;;6142418;23;20190;-74
2023/05/18 01:26:16;;;;;;;9.63;7.85;;;8.10;99.90;;;;;;6149079;23;20180;-74
2023/05/18 01:28:46;;;;;;;8.88;7.43;;;8.10;99.90;;;;;;6142292;23;20225;-75
2023/05/18 01:31:14;;;;;;;8.60;6.88;;;8.10;99.90;;;;;;6137851;23;20217;-74
2023/05/18 01:33:42;;;;;;;8.15;7.05;;;8.10;99.90;;;;;;6146539;23;20212;-75
2023/05/18 01:36:10;;;;;;;8.32;7.35;;;8.10;99.90;;;;;;6148033;23;20188;-74
2023/05/18 01:38:38;;;;;;;7.78;6.97;;;8.10;99.90;;;;;;6137042;23;20213;-74
2023/05/18 01:41:12;;;;;;;8.30;7.45;;;8.10;99.90;;;;;;6129591;23;20550;-74
2023/05/18 01:43:47;;;;;;;7.07;6.38;;;8.00;99.90;;;;;;6147750;23;20187;-74
2023/05/18 01:46:22;;;;;;;8.32;6.95;;;8.00;99.90;;;;;;6144398;23;20191;-74
2023/05/18 01:48:54;;;;;;;6.80;6.10;;;8.00;99.90;;;;;;6143867;23;20305;-74
2023/05/18 01:51:23;;;;;;;8.13;5.72;;;7.90;99.90;;;;;;6139200;23;20243;-74
2023/05/18 01:53:56;;;;;;;5.85;4.72;;;7.90;99.90;;;;;;6134792;23;20232;-74
2023/05/18 01:56:25;;;;;;;6.88;5.03;;;7.80;99.90;;;;;;6144752;23;20228;-74
2023/05/18 01:58:53;;;;;;;5.68;4.60;;;7.80;99.90;;;;;;6142093;23;20195;-75
2023/05/18 02:01:22;;;;;;;6.43;4.72;;;7.80;99.90;;;;;;6126787;23;20239;-74
2023/05/18 02:03:50;;;;;;;5.93;5.22;;;7.80;99.90;;;;;;6146259;23;20236;-75
2023/05/18 02:06:17;;;;;;;7.57;5.20;;;7.70;99.90;;;;;;6134919;23;20191;-74
2023/05/18 02:08:44;;;;;;;9.95;5.53;;;7.70;99.90;;;;;;6138191;23;20199;-75
2023/05/18 02:11:11;;;;;;;6.07;5.50;;;7.60;99.90;;;;;;6141133;23;20215;-75
2023/05/18 02:13:38;;;;;;;6.22;5.63;;;7.60;99.90;;;;;;6133381;23;20594;-75
2023/05/18 02:16:07;;;;;;;6.10;5.50;;;7.60;99.90;;;;;;6131702;23;20215;-74
2023/05/18 02:18:35;;;;;;;7.38;5.95;;;7.50;99.90;;;;;;6144968;23;20196;-75
2023/05/18 02:21:02;;;;;;;6.75;5.28;;;7.50;99.90;;;;;;6127755;23;20204;-75
2023/05/18 02:23:30;;;;;;;10.40;5.03;;;7.50;99.90;;;;;;6136002;23;20221;-75
2023/05/18 02:25:56;;;;;;;6.57;5.65;;;7.40;99.90;;;;;;6126968;23;20202;-75
2023/05/18 02:28:24;;;;;;;7.07;5.45;;;7.40;99.90;;;;;;6141852;23;20273;-75
2023/05/18 02:30:51;;;;;;;6.07;5.43;;;7.30;99.90;;;;;;6146942;23;20305;-75
2023/05/18 02:33:25;;;;;;;8.57;5.97;;;7.30;99.90;;;;;;6150402;23;20188;-74
2023/05/18 02:35:53;;;;;;;6.60;5.50;;;7.30;99.90;;;;;;6141826;23;20270;-74
2023/05/18 02:38:21;;;;;;;6.60;5.60;;;7.30;99.90;;;;;;6140496;23;20218;-74
2023/05/18 02:40:48;;;;;;;6.38;5.78;;;7.30;99.90;;;;;;6131820;23;20196;-75
2023/05/18 02:43:15;;;;;;;6.88;5.80;;;7.30;99.90;;;;;;6142622;23;20194;-75
2023/05/18 02:45:42;;;;;;;6.50;5.40;;;7.30;99.90;;;;;;6146014;23;20236;-74
2023/05/18 02:48:09;;;;;;;6.35;5.75;;;7.30;99.90;;;;;;6146500;23;20276;-75
2023/05/18 02:50:37;;;;;;;9.00;6.30;;;7.30;99.90;;;;;;6134069;23;20578;-75
2023/05/18 02:53:04;;;;;;;6.22;5.50;;;7.30;99.90;;;;;;6127875;23;20228;-75
2023/05/18 02:55:31;;;;;;;8.95;5.82;;;7.20;99.90;;;;;;6143597;23;20246;-75
2023/05/18 02:57:59;;;;;;;6.97;6.00;;;7.20;99.90;;;;;;6146748;23;20201;-75
2023/05/18 03:00:28;;;;;;;7.70;5.57;;;7.20;99.90;;;;;;6146737;23;20216;-75
2023/05/18 03:02:56;;;;;;;7.85;6.10;;;7.20;99.90;;;;;;6135885;23;20274;-75
2023/05/18 03:05:23;;;;;;;7.72;5.35;;;7.30;99.90;;;;;;6130379;23;20191;-75
2023/05/18 03:07:53;;;;;;;7.25;5.50;;;7.30;99.90;;;;;;6131289;23;20275;-75
2023/05/18 03:10:20;;;;;;;6.20;5.60;;;7.30;99.90;;;;;;6149214;23;20219;-75
2023/05/18 03:12:47;;;;;;;11.88;5.70;;;7.30;99.90;;;;;;6149537;23;20762;-74
2023/05/18 03:15:15;;;;;;;9.63;5.60;;;7.30;99.90;;;;;;6145075;23;20194;-75
2023/05/18 03:17:42;;;;;;;6.35;4.97;;;7.30;99.90;;;;;;6156018;23;20190;-75
2023/05/18 03:20:13;;;;;;;8.15;5.68;;;7.30;99.90;;;;;;6136203;23;20640;-75
2023/05/18 03:22:40;;;;;;;6.32;4.88;;;7.30;99.90;;;;;;6142838;23;20239;-74
2023/05/18 03:25:09;;;;;;;5.88;5.20;;;7.30;99.90;;;;;;6143065;23;20198;-75
2023/05/18 03:27:36;;;;;;;8.55;5.43;;;7.30;99.90;;;;;;6147560;23;20191;-74
2023/05/18 03:30:05;;;;;;;5.80;5.00;;;7.30;99.90;;;;;;6140227;23;20207;-75
2023/05/18 03:32:32;;;;;;;6.72;4.90;;;7.30;99.90;;;;;;6120783;23;20207;-75
2023/05/18 03:35:00;;;;;;;8.05;4.90;;;7.30;99.90;;;;;;6149397;23;20270;-75
2023/05/18 03:37:27;;;;;;;6.47;5.28;;;7.50;99.90;;;;;;6147353;23;20191;-75
2023/05/18 03:39:55;;;;;;;5.95;5.07;;;7.30;99.90;;;;;;6145028;23;20210;-75
2023/05/18 03:42:24;;;;;;;5.75;4.95;;;7.30;99.90;;;;;;6147109;23;20207;-75
2023/05/18 03:44:51;;;;;;;9.48;5.20;;;7.30;99.90;;;;;;6149093;23;20195;-75
2023/05/18 03:47:18;;;;;;;8.18;6.00;;;7.30;99.90;;;;;;6144177;23;20191;-75
2023/05/18 03:49:45;;;;;;;6.15;4.90;;;7.30;99.90;;;;;;6149330;23;20275;-74
2023/05/18 03:52:14;;;;;;;6.05;5.45;;;7.30;99.90;;;;;;6160521;23;20571;-75
2023/05/18 03:54:41;;;;;;;9.30;4.85;;;7.30;99.90;;;;;;6141745;23;20179;-75
2023/05/18 03:57:08;;;;;;;7.90;5.80;;;7.30;99.90;;;;;;6145080;23;20192;-74
2023/05/18 03:59:37;;;;;;;6.45;5.10;;;7.30;99.90;;;;;;6157075;23;20624;-74
2023/05/18 04:02:03;;;;;;;8.00;5.40;;;7.20;99.90;;;;;;6153076;23;20733;-74
2023/05/18 04:04:31;;;;;;;6.78;5.32;;;7.30;99.90;;;;;;6148290;23;20270;-73
2023/05/18 04:07:00;;;;;;;9.25;5.50;;;7.20;99.90;;;;;;6138196;23;20184;-74
2023/05/18 04:09:28;;;;;;;7.38;5.40;;;7.30;99.90;;;;;;6148217;23;20202;-74
2023/05/18 04:11:55;;;;;;;5.82;5.00;;;7.20;99.90;;;;;;6145531;23;20593;-74
2023/05/18 04:14:23;;;;;;;7.60;5.55;;;7.30;99.90;;;;;;6161426;23;20621;-73
2023/05/18 04:16:51;;;;;;;7.55;5.28;;;7.30;99.90;;;;;;6143243;23;20274;-74
2023/05/18 04:19:20;;;;;;;6.85;4.80;;;7.30;99.90;;;;;;6147858;23;20304;-74
2023/05/18 04:21:47;;;;;;;7.10;5.20;;;7.30;99.90;;;;;;6143820;23;20768;-74
2023/05/18 04:24:15;;;;;;;9.95;5.63;;;7.30;99.90;;;;;;6134093;23;20524;-72
2023/05/18 04:26:42;;;;;;;6.75;5.50;;;7.40;99.90;;;;;;6130303;23;20261;-72
2023/05/18 04:29:12;;;;;;;7.45;4.90;;;7.40;99.90;;;;;;6147116;23;20195;-73
2023/05/18 04:31:41;;;;;;;6.68;4.70;;;7.50;99.90;;;;;;6130958;23;20225;-73
2023/05/18 04:34:12;;;;;;;6.03;4.50;;;7.50;99.90;;;;;;6143547;23;20187;-75
2023/05/18 04:36:41;;;;;;;9.70;5.55;;;7.60;99.90;;;;;;6142127;23;20188;-73
2023/05/18 04:39:09;;;;;;;6.07;4.90;;;7.60;99.90;;;;;;6142590;23;20268;-72
2023/05/18 04:41:37;;;;;;;6.43;4.45;;;7.60;99.90;;;;;;6146404;23;20208;-74
2023/05/18 04:44:04;;;;;;;4.90;4.25;;;7.70;99.90;;;;;;6135426;23;20197;-74
2023/05/18 04:46:32;;;;;;;7.10;4.45;;;7.70;99.90;;;;;;6127726;23;20203;-74
2023/05/18 04:49:00;;;;;;;5.60;4.63;;;7.80;99.90;;;;;;6119586;23;20211;-73
2023/05/18 04:51:28;;;;;;;7.50;4.53;;;7.80;99.90;;;;;;6128917;23;20220;-74
2023/05/18 04:53:56;;;;;;;7.28;4.55;;;7.90;99.90;;;;;;6123177;23;20655;-74
2023/05/18 04:56:22;;;;;;;6.05;3.85;;;8.00;99.90;;;;;;6138941;23;20203;-73
2023/05/18 04:58:50;;;;;;;6.25;4.40;;;8.00;99.90;;;;;;6140456;23;20187;-74
2023/05/18 05:01:18;;;;;;;6.40;4.30;;;8.10;99.90;;;;;;6139742;23;20217;-73
2023/05/18 05:03:45;;;;;;;6.15;4.25;;;8.10;99.90;;;;;;6130832;23;20188;-73
2023/05/18 05:06:12;;;;;;;7.07;4.45;;;8.20;99.90;;;;;;6141073;23;20637;-73
2023/05/18 05:08:40;;;;;;;6.25;4.05;;;8.30;99.90;;;;;;6143963;23;20234;-72
2023/05/18 05:11:07;;;;;;;7.57;3.90;;;8.40;99.90;;;;;;6139772;23;20255;-84
2023/05/18 05:13:35;;;;;;;7.15;4.32;;;8.60;99.90;;;;;;6124878;23;20545;-85
2023/05/18 05:16:02;;;;;;;4.55;4.00;;;8.70;99.90;;;;;;6145889;23;20688;-85
2023/05/18 05:18:29;;;;;;;5.18;3.60;;;8.80;99.90;;;;;;6142432;23;20189;-85
2023/05/18 05:20:58;;;;;;;3.97;3.40;;;8.90;99.90;;;;;;6142054;23;20205;-84
2023/05/18 05:23:25;;;;;;;5.43;3.80;;;9.00;99.90;;;;;;6119543;23;20315;-76
2023/05/18 05:25:54;;;;;;;7.05;3.85;;;9.10;99.90;;;;;;6124737;23;20194;-75
2023/05/18 05:28:21;;;;;;;5.50;3.70;;;9.20;99.90;;;;;;6140566;23;20187;-77
2023/05/18 05:30:48;;;;;;;11.15;3.90;;;9.30;99.90;;;;;;6142270;23;20215;-84
2023/05/18 05:33:15;;;;;;;6.68;3.80;;;9.30;99.90;;;;;;6140873;23;20568;-79
2023/05/18 05:35:42;;;;;;;4.30;2.85;;;9.40;99.90;;;;;;6129921;23;20220;-76
2023/05/18 05:38:09;;;;;;;9.45;3.58;;;9.40;99.90;;;;;;6131192;23;20183;-75
2023/05/18 05:40:36;;;;;;;5.63;3.58;;;9.50;99.90;;;;;;6122690;23;20208;-76
2023/05/18 05:43:06;;;;;;;7.15;3.72;;;9.50;99.90;;;;;;6127487;23;20224;-75
2023/05/18 05:45:33;;;;;;;5.20;4.00;;;9.60;99.90;;;;;;6117720;23;20703;-73
2023/05/18 05:48:01;;;;;;;10.85;3.53;;;9.60;99.90;;;;;;6138873;23;20187;-73
2023/05/18 05:50:28;;;;;;;6.60;3.50;;;9.60;99.90;;;;;;6153512;23;20247;-73
2023/05/18 05:52:55;;;;;;;5.18;2.80;;;9.70;99.90;;;;;;6126361;23;20748;-74
2023/05/18 05:55:22;;;;;;;6.30;3.50;;;9.60;99.90;;;;;;6143871;23;20200;-73
2023/05/18 05:57:49;;;;;;;7.45;3.92;;;9.60;99.90;;;;;;6147167;23;20586;-73
2023/05/18 06:00:19;;;;;;;8.77;3.67;;;9.70;99.90;;;;;;6147317;23;20194;-73
2023/05/18 06:02:46;;;;;;;8.10;3.88;;;9.80;99.90;;;;;;6147256;23;20211;-73
2023/05/18 06:05:13;;;;;;;5.15;3.17;;;9.90;99.90;;;;;;6158274;23;20240;-73
2023/05/18 06:07:40;;;;;;;7.30;3.40;;;10.00;99.90;;;;;;6131368;23;20198;-74
2023/05/18 06:10:08;;;;;;;6.10;3.15;;;10.10;99.90;;;;;;6137866;23;20182;-73
2023/05/18 06:12:35;;;;;;;5.65;3.28;;;10.20;99.90;;;;;;6163121;23;20240;-73
2023/05/18 06:15:03;;;;;;;6.63;3.72;;;10.30;99.90;;;;;;6147179;23;20189;-74
2023/05/18 06:17:31;;;;;;;4.95;3.30;;;10.40;99.90;;;;;;6146886;23;20186;-73
2023/05/18 06:19:58;;;;;;;5.53;3.22;;;10.40;99.90;;;;;;6137293;23;20664;-73
2023/05/18 06:22:25;;;;;;;5.15;3.00;;;10.50;99.90;;;;;;6147003;23;20337;-73
2023/05/18 06:24:52;;;;;;;6.30;3.40;;;10.60;99.90;;;;;;6147778;23;20187;-74
2023/05/18 06:27:19;;;;;;;6.45;3.63;;;10.70;99.90;;;;;;6150165;23;20704;-73
2023/05/18 06:29:46;;;;;;;5.85;3.50;;;10.80;99.90;;;;;;6148289;23;20278;-73
2023/05/18 06:32:13;;;;;;;7.63;3.10;;;10.90;99.90;;;;;;6146718;23;20214;-73
2023/05/18 06:34:44;;;;;;;6.22;3.20;;;11.00;99.90;;;;;;6144300;23;20205;-73
2023/05/18 06:37:12;;;;;;;4.13;3.20;;;10.90;99.90;;;;;;6144260;23;20258;-73
2023/05/18 06:39:39;;;;;;;4.15;2.95;;;11.00;99.90;;;;;;6148107;23;20190;-73
2023/05/18 06:42:07;;;;;;;4.57;2.88;;;11.20;99.90;;;;;;6149482;23;20214;-73
2023/05/18 06:44:34;;;;;;;4.65;3.47;;;11.30;99.90;;;;;;6149719;23;20191;-74
2023/05/18 06:47:01;;;;;;;6.10;3.28;;;11.50;99.90;;;;;;6140103;23;20219;-74
2023/05/18 06:49:28;;;;;;;5.93;3.28;;;11.50;99.90;;;;;;6173936;23;20277;-74
2023/05/18 06:51:57;;;;;;;7.50;3.70;;;11.60;99.90;;;;;;6146215;23;20214;-73
2023/05/18 06:54:24;;;;;;;5.72;2.97;;;11.70;99.90;;;;;;6134114;23;20266;-74
2023/05/18 06:56:51;;;;;;;4.63;3.25;;;11.70;99.90;;;;;;6162846;23;20265;-74
2023/05/18 06:59:18;;;;;;;10.35;3.83;;;11.80;99.90;;;;;;6179369;23;20246;-73
2023/05/18 07:01:45;;;;;;;7.00;3.77;;;11.80;99.90;;;;;;6148310;23;20238;-73
2023/05/18 07:04:12;;;;;;;7.45;3.30;;;11.90;99.90;;;;;;6150090;23;20424;-73
2023/05/18 07:06:40;;;;;;;4.43;3.00;;;11.80;99.90;;;;;;6147354;23;20186;-73
2023/05/18 07:09:08;;;;;;;4.32;3.08;;;11.80;99.90;;;;;;6134134;23;20240;-74
2023/05/18 07:11:35;;;;;;;7.13;3.80;;;11.80;99.90;;;;;;6140358;23;20221;-73
2023/05/18 07:14:02;;;;;;;7.28;3.67;;;11.90;99.90;;;;;;6149423;23;20654;-73
2023/05/18 07:16:29;;;;;;;4.00;3.17;;;12.00;99.90;;;;;;6149909;23;20193;-73
2023/05/18 07:18:57;;;;;;;5.77;3.23;;;12.00;99.90;;;;;;6157902;23;20194;-74
2023/05/18 07:21:25;;;;;;;7.17;3.53;;;12.20;99.90;;;;;;6161743;23;20455;-73
2023/05/18 07:23:52;;;;;;;5.60;3.23;;;12.40;99.90;;;;;;6167265;23;20518;-73
2023/05/18 07:26:21;;;;;;;7.90;3.77;;;12.60;99.90;;;;;;6145570;23;20455;-74
2023/05/18 07:28:50;;;;;;;6.00;3.23;;;12.80;99.90;;;;;;6146324;23;20482;-73
2023/05/18 07:31:19;;;;;;;5.10;3.23;;;13.00;99.90;;;;;;6150669;23;20473;-74
2023/05/18 07:33:47;;;;;;;3.50;3.20;;;13.20;99.90;;;;;;6126286;23;20808;-74
2023/05/18 07:36:15;;;;;;;5.43;3.10;;;13.60;99.90;;;;;;6118877;23;20445;-74
2023/05/18 07:38:43;;;;;;;5.93;3.20;;;14.00;99.90;;;;;;6115739;23;20999;-74
2023/05/18 07:41:10;;;;;;;5.97;3.33;;;14.40;99.90;;;;;;6118635;23;20429;-74
2023/05/18 07:43:38;;;;;;;5.47;2.93;;;14.90;99.90;;;;;;6117214;23;20920;-74
2023/05/18 07:46:05;;;;;;;5.20;3.50;;;15.50;99.90;;;;;;6138347;23;20464;-75
2023/05/18 07:48:32;;;;;;;6.67;2.90;;;15.60;99.90;;;;;;6176609;23;20446;-74
2023/05/18 07:50:59;;;;;;;5.60;3.20;;;16.00;99.90;;;;;;6178826;23;20463;-74
2023/05/18 07:53:27;;;;;;;6.03;3.43;;;16.30;99.90;;;;;;6148059;23;20452;-74
2023/05/18 07:55:54;;;;;;;5.60;2.80;;;16.90;99.90;;;;;;6160122;23;20435;-91
2023/05/18 07:58:21;;;;;;;5.13;3.17;;;17.00;99.90;;;;;;6105108;23;20515;-74
2023/05/18 08:00:50;;;;;;;5.40;3.00;;;17.20;99.90;;;;;;6123200;23;20460;-74
2023/05/18 08:03:18;;;;;;;4.90;3.23;;;17.40;99.90;;;;;;6143631;23;20479;-74
2023/05/18 08:05:46;;;;;;;5.70;3.40;;;17.60;99.90;;;;;;6135055;23;20909;-74
2023/05/18 08:08:14;;;;;;;4.83;2.73;;;17.70;99.90;;;;;;6129084;23;20516;-74
2023/05/18 08:10:41;;;;;;;6.83;3.00;;;17.90;99.90;;;;;;6128731;23;20507;-75
2023/05/18 08:13:08;;;;;;;6.30;2.97;;;18.10;99.50;;;;;;6145806;23;20438;-74
2023/05/18 08:15:36;;;;;;;5.53;3.30;;;18.00;98.60;;;;;;6142257;23;20482;-74
2023/05/18 08:18:04;;;;;;;6.43;3.43;;;17.90;98.30;;;;;;6137292;23;20542;-76
2023/05/18 08:20:31;;;;;;;4.43;2.77;;;17.30;98.40;;;;;;6144750;23;20979;-74
2023/05/18 08:22:58;;;;;;;6.47;3.20;;;17.20;98.60;;;;;;6132858;23;20437;-74
2023/05/18 08:25:25;;;;;;;3.50;2.80;;;17.40;99.10;;;;;;6125727;23;20433;-76
2023/05/18 08:27:53;;;;;;;3.73;2.93;;;17.70;98.70;;;;;;6125263;23;20437;-74
2023/05/18 08:30:20;;;;;;;4.37;2.40;;;18.10;98.40;;;;;;6144333;23;20452;-74
2023/05/18 08:32:47;;;;;;;8.37;3.40;;;18.30;98.40;;;;;;6132130;23;21236;-74
2023/05/18 08:35:16;;;;;;;7.17;3.10;;;18.60;97.30;;;;;;6140948;23;20437;-75
2023/05/18 08:37:43;;;;;;;5.50;3.17;;;18.60;97.00;;;;;;6146580;23;20431;-73
2023/05/18 08:40:12;;;;;;;6.40;3.80;;;18.80;97.30;;;;;;6116773;23;20474;-73
2023/05/18 08:42:44;;;;;;;5.63;2.50;;;19.10;96.30;;;;;;6131067;23;20446;-73
2023/05/18 08:45:18;;;;;;;5.17;3.13;;;19.50;95.70;;;;;;6145700;23;20515;-74
2023/05/18 08:47:47;;;;;;;6.10;2.83;;;19.70;95.00;;;;;;6145580;23;20837;-74
2023/05/18 08:50:17;;;;;;;5.93;2.87;;;19.90;94.30;;;;;;6147711;23;20733;-74
2023/05/18 08:52:48;;;;;;;3.90;2.60;;;19.60;94.00;;;;;;6135168;23;20467;-74
2023/05/18 08:55:17;;;;;;;6.53;2.80;;;19.20;93.70;;;;;;6147605;23;20513;-74
2023/05/18 08:57:53;;;;;;;6.40;3.00;;;19.30;94.70;;;;;;6141359;23;20430;-74
2023/05/18 09:00:20;;;;;;;4.70;2.80;;;19.70;94.10;;;;;;6128635;23;20452;-73
2023/05/18 09:02:48;;;;;;;4.10;2.67;;;20.10;92.80;;;;;;6139572;23;20445;-74
2023/05/18 09:05:17;;;;;;;5.77;2.87;;;20.50;92.60;;;;;;6143103;23;20429;-76
2023/05/18 09:07:46;;;;;;;7.67;3.17;;;20.80;91.60;;;;;;6136537;23;20489;-75
2023/05/18 09:10:14;;;;;;;5.70;2.80;;;20.80;90.40;;;;;;6138733;23;20472;-74
2023/05/18 09:12:45;;;;;;;7.30;3.20;;;19.80;91.30;;;;;;6103377;23;20600;-74
2023/05/18 09:15:13;;;;;;;7.47;3.47;;;19.70;91.20;;;;;;6127697;23;20435;-74
2023/05/18 09:17:40;;;;;;;5.80;2.80;;;19.50;91.80;;;;;;6130235;23;20985;-75
2023/05/18 09:20:09;;;;;;;6.97;3.20;;;19.90;91.80;;;;;;6120621;23;20460;-74
2023/05/18 09:22:39;;;;;;;4.70;3.07;;;20.20;91.20;;;;;;6114550;23;20444;-74
2023/05/18 09:25:08;;;;;;;4.43;2.67;;;19.90;91.50;;;;;;6122252;23;20932;-74
2023/05/18 09:27:36;;;;;;;4.63;3.13;;;20.00;91.50;;;;;;6126117;23;20439;-74
2023/05/18 09:30:04;;;;;;;6.37;3.63;;;19.90;90.70;;;;;;6140087;23;21160;-74
2023/05/18 09:32:36;;;;;;;4.47;2.70;;;19.70;91.00;;;;;;6136122;23;20459;-76
2023/05/18 09:35:07;;;;;;;5.00;3.00;;;19.70;91.40;;;;;;6139310;23;20439;-76
2023/05/18 09:37:34;;;;;;;6.53;3.47;;;20.10;90.90;;;;;;6136015;23;20981;-75
2023/05/18 09:40:05;;;;;;;3.67;3.00;;;20.00;90.30;;;;;;6137336;23;20433;-74
2023/05/18 09:42:36;;;;;;;6.80;3.27;;;19.60;90.40;;;;;;6137822;23;20447;-74
2023/05/18 09:45:03;;;;;;;5.33;3.43;;;19.70;90.30;;;;;;6134447;23;20800;-74
2023/05/18 09:47:32;;;;;;;7.87;3.33;;;19.70;90.70;;;;;;6142398;23;20434;-74
2023/05/18 09:50:00;;;;;;;5.50;3.43;;;19.90;90.40;;;;;;6146161;23;20437;-74
2023/05/18 09:52:27;;;;;;;4.20;3.10;;;20.10;89.40;;;;;;6137594;23;20469;-74
2023/05/18 09:54:59;;;;;;;5.63;3.20;;;20.20;88.60;;;;;;6124737;23;20859;-74
2023/05/18 09:57:28;;;;;;;5.13;3.00;;;20.40;87.70;;;;;;6140567;23;20460;-74
2023/05/18 10:00:09;;;;;;;7.57;3.33;;;20.60;87.10;;;;;;6143186;23;20475;-75
2023/05/18 10:02:39;;;;;;;5.23;3.27;;;20.80;88.00;;;;;;6132318;23;20521;-75
2023/05/18 10:05:07;;;;;;;6.90;3.37;;;21.20;86.10;;;;;;6145801;23;20460;-75
2023/05/18 10:07:35;;;;;;;3.50;2.30;;;21.50;83.60;;;;;;6133982;23;20429;-74
2023/05/18 10:10:04;;;;;;;5.93;3.60;;;21.60;84.00;;;;;;6129450;23;20528;-74
2023/05/18 10:12:32;;;;;;;5.40;2.93;;;22.00;83.70;;;;;;6140119;23;20947;-75
2023/05/18 10:14:59;;;;;;;4.23;3.07;;;22.20;81.90;;;;;;6142922;23;20432;-75
2023/05/18 10:17:27;;;;;;;5.33;3.13;;;22.50;82.30;;;;;;6126569;23;20528;-74
2023/05/18 10:19:56;;;;;;;4.87;3.03;;;22.80;81.10;;;;;;6139320;23;20456;-75
2023/05/18 10:22:25;;;;;;;4.03;2.60;;;23.10;79.70;;;;;;6143163;23;20440;-76
2023/05/18 10:24:53;;;;;;;4.90;3.30;;;23.40;78.60;;;;;;6138810;23;20428;-75
2023/05/18 10:27:24;;;;;;;4.60;2.67;;;22.60;77.40;;;;;;6135279;23;20512;-74
2023/05/18 10:29:53;;;;;;;4.70;2.67;;;22.70;79.10;;;;;;6131967;23;20432;-74
2023/05/18 10:32:24;;;;;;;4.47;3.10;;;23.10;77.80;;;;;;6132099;23;20962;-75
2023/05/18 10:34:52;;;;;;;4.50;3.00;;;23.60;76.70;;;;;;6136668;23;20519;-74
2023/05/18 10:37:22;;;;;;;5.20;2.90;;;24.00;75.40;;;;;;6140679;23;20806;-74
2023/05/18 10:39:51;;;;;;;4.93;3.07;;;24.20;75.10;;;;;;6128653;23;20436;-74
2023/05/18 10:42:19;;;;;;;3.87;2.80;;;24.60;72.20;;;;;;6134690;23;20440;-74
2023/05/18 10:44:48;;;;;;;4.83;3.00;;;24.30;70.70;;;;;;6144962;23;20491;-74
2023/05/18 10:47:19;;;;;;;4.07;2.90;;;24.50;71.20;;;;;;6144536;23;20525;-74
2023/05/18 10:49:48;;;;;;;5.00;3.07;;;24.50;71.20;;;;;;6147578;23;20497;-74
2023/05/18 10:52:17;;;;;;;5.17;3.20;;;23.90;69.70;;;;;;6144771;23;20496;-74
2023/05/18 10:54:44;;;;;;;3.60;2.87;;;22.40;70.00;;;;;;6148890;23;20554;-74
2023/05/18 10:57:14;;;;;;;5.13;3.10;;;21.70;72.10;;;;;;6140987;23;20875;-73
2023/05/18 10:59:43;;;;;;;5.20;2.80;;;22.00;74.50;;;;;;6135308;23;20521;-74
2023/05/18 11:02:12;;;;;;;5.70;3.10;;;22.70;73.60;;;;;;6141378;23;20470;-74
2023/05/18 11:04:41;;;;;;;4.47;2.97;;;23.40;71.10;;;;;;6149322;23;20590;-74
2023/05/18 11:07:12;;;;;;;5.63;2.90;;;23.80;70.40;;;;;;6139543;23;20463;-74
2023/05/18 11:09:42;;;;;;;4.77;3.50;;;23.60;68.50;;;;;;6142535;23;20425;-74
2023/05/18 11:12:12;;;;;;;6.20;2.97;;;23.60;70.50;;;;;;6139613;23;20877;-74
2023/05/18 11:14:48;;;;;;;5.10;3.10;;;23.90;68.10;;;;;;6130728;23;20436;-74
2023/05/18 11:17:17;;;;;;;3.77;2.77;;;24.10;68.20;;;;;;6138859;23;20432;-74
2023/05/18 11:20:15;;;;;;;4.70;3.13;;;24.70;68.00;;;;;;6147148;23;20416;-74
2023/05/18 11:22:47;;;;;;;3.70;2.40;;;25.10;67.30;;;;;;6130033;23;20537;-74
2023/05/18 11:25:40;;;;;;;3.43;2.80;;;25.60;66.00;;;;;;6126119;23;20446;-74
2023/05/18 11:28:09;;;;;;;3.50;2.43;;;25.20;63.10;;;;;;6144257;23;20434;-74
2023/05/18 11:30:50;;;;;;;3.53;2.67;;;25.20;65.40;;;;;;6136610;23;20459;-74
2023/05/18 11:33:23;;;;;;;7.23;2.90;;;25.60;63.60;;;;;;6134070;23;20552;-74
2023/05/18 11:36:06;;;;;;;4.43;2.60;;;25.80;62.90;;;;;;6138871;23;20439;-73
2023/05/18 11:38:48;;;;;;;6.23;2.87;;;25.90;62.50;;;;;;6143188;23;20433;-74
2023/05/18 11:41:35;;;;;;;4.13;2.57;;;25.50;60.80;;;;;;6141559;23;20921;-73
2023/05/18 11:44:14;;;;;;;3.90;2.77;;;24.70;64.30;;;;;;6141460;23;20433;-73
2023/05/18 11:46:51;;;;;;;4.43;2.53;;;24.70;61.30;;;;;;6142168;23;20434;-73
2023/05/18 11:49:21;;;;;;;3.37;2.90;;;24.90;61.30;;;;;;6129160;23;20959;-74
2023/05/18 11:52:07;;;;;;;4.07;2.90;;;25.10;62.90;;;;;;6138512;23;20457;-85
2023/05/18 11:54:43;;;;;;;5.67;2.93;;;25.60;60.30;;;;;;6148545;23;20517;-75
2023/05/18 11:57:11;;;;;;;3.67;2.80;;;25.90;60.50;;;;;;6143301;23;20567;-74
2023/05/18 11:59:40;;;;;;;3.60;2.53;;;26.00;59.50;;;;;;6156776;23;20475;-79
2023/05/18 12:02:10;;;;;;;4.17;2.90;;;25.90;60.20;;;;;;6155414;23;20483;-80
2023/05/18 12:04:43;;;;;;;3.60;2.57;;;25.80;59.80;;;;;;6138319;23;20465;-78
2023/05/18 12:07:12;;;;;;;3.80;2.30;;;25.60;60.30;;;;;;6135540;23;20437;-76
2023/05/18 12:09:41;;;;;;;6.77;2.50;;;25.90;59.20;;;;;;6136883;23;20440;-76
2023/05/18 12:12:09;;;;;;;4.73;2.40;;;26.40;58.40;;;;;;6120148;23;20460;-75
2023/05/18 12:14:38;;;;;;;3.57;2.63;;;26.60;57.60;;;;;;6168167;23;20459;-76
2023/05/18 12:17:07;;;;;;;3.57;2.43;;;26.90;57.20;;;;;;6172761;23;20486;-76
2023/05/18 12:19:38;;;;;;;4.07;2.37;;;27.30;56.90;;;;;;6130110;23;20461;-76
2023/05/18 12:22:05;;;;;;;3.03;2.30;;;27.40;56.70;;;;;;6133399;23;20562;-76
2023/05/18 12:24:34;;;;;;;3.20;2.10;;;27.60;56.40;;;;;;6133424;23;20440;-76
2023/05/18 12:27:03;;;;;;;5.10;2.80;;;27.90;55.60;;;;;;6142666;23;20428;-76
2023/05/18 12:29:30;;;;;;;4.77;2.60;;;28.30;54.90;;;;;;6144426;23;20436;-76
2023/05/18 12:31:57;;;;;;;5.30;2.60;;;28.60;54.10;;;;;;6148205;23;20819;-75
2023/05/18 12:34:29;;;;;;;4.00;2.83;;;28.40;53.20;;;;;;6131425;23;20469;-76
2023/05/18 12:36:57;;;;;;;2.40;1.97;;;27.90;54.00;;;;;;6143318;23;20527;-76
2023/05/18 12:39:25;;;;;;;4.03;2.27;;;28.30;53.80;;;;;;6149029;23;20412;-76
2023/05/18 12:41:53;;;;;;;3.10;2.47;;;28.30;54.00;;;;;;6149823;23;20482;-76
2023/05/18 12:44:21;;;;;;;3.57;2.40;;;28.70;52.30;;;;;;6156398;23;20448;-76
2023/05/18 12:46:48;;;;;;;3.10;2.20;;;28.60;52.90;;;;;;6125880;23;20437;-77
2023/05/18 12:49:18;;;;;;;5.20;2.73;;;28.50;52.80;;;;;;6129030;23;20465;-76
2023/05/18 12:51:46;;;;;;;3.60;2.53;;;28.50;52.70;;;;;;6119082;23;20507;-76
2023/05/18 12:54:13;;;;;;;3.60;2.57;;;28.00;53.10;;;;;;6124836;23;20572;-76
2023/05/18 12:56:50;;;;;;;5.90;2.77;;;27.80;53.40;;;;;;6120736;23;20824;-76
2023/05/18 12:59:19;;;;;;;5.70;3.00;;;28.00;53.50;;;;;;6148773;23;20439;-76